sensor_id;sensor_type;location;lat;lon;timestamp;P1;durP1;ratioP1;P2;durP2;ratioP2
20334;SDS011;10325;51.468;5.804;2022-09-01T00:00:49;1.27;;;0.90;;
20334;SDS011;10325;51.468;5.804;2022-09-01T00:03:20;1.53;;;1.00;;
20334;SDS011;10325;51.468;5.804;2022-09-01T00:05:53;1.63;;;1.00;;
20334;SDS011;10325;51.468;5.804;2022-09-01T00:08:29;1.60;;;1.17;;
20334;SDS011;10325;51.468;5.804;2022-09-01T00:11:02;2.40;;;1.00;;
20334;SDS011;10325;51.468;5.804;2022-09-01T00:13:31;3.80;;;1.17;;
20334;SDS011;10325;51.468;5.804;2022-09-01T00:16:01;1.37;;;1.27;;
20334;SDS011;10325;51.468;5.804;2022-09-01T00:18:31;2.80;;;0.97;;
20334;SDS011;10325;51.468;5.804;2022-09-01T00:21:32;1.00;;;0.93;;
20334;SDS011;10325;51.468;5.804;2022-09-01T00:24:12;1.23;;;0.93;;
20334;SDS011;10325;51.468;5.804;2022-09-01T00:26:44;1.30;;;0.97;;
20334;SDS011;10325;51.468;5.804;2022-09-01T00:29:15;3.67;;;0.87;;
20334;SDS011;10325;51.468;5.804;2022-09-01T00:31:46;1.30;;;1.00;;
20334;SDS011;10325;51.468;5.804;2022-09-01T00:34:17;2.23;;;1.10;;
20334;SDS011;10325;51.468;5.804;2022-09-01T00:36:53;2.50;;;1.13;;
20334;SDS011;10325;51.468;5.804;2022-09-01T00:39:24;1.37;;;1.07;;
20334;SDS011;10325;51.468;5.804;2022-09-01T00:41:55;1.50;;;0.93;;
20334;SDS011;10325;51.468;5.804;2022-09-01T00:44:27;1.43;;;0.90;;
20334;SDS011;10325;51.468;5.804;2022-09-01T00:46:58;2.40;;;1.10;;
20334;SDS011;10325;51.468;5.804;2022-09-01T00:49:31;0.97;;;0.90;;
20334;SDS011;10325;51.468;5.804;2022-09-01T00:54:39;2.00;;;1.37;;
20334;SDS011;10325;51.468;5.804;2022-09-01T00:57:16;3.10;;;1.10;;
20334;SDS011;10325;51.468;5.804;2022-09-01T00:59:54;1.23;;;1.13;;
20334;SDS011;10325;51.468;5.804;2022-09-01T01:02:25;1.00;;;1.00;;
20334;SDS011;10325;51.468;5.804;2022-09-01T01:04:56;1.63;;;1.20;;
20334;SDS011;10325;51.468;5.804;2022-09-01T01:07:28;2.27;;;1.10;;
20334;SDS011;10325;51.468;5.804;2022-09-01T01:10:09;1.80;;;1.07;;
20334;SDS011;10325;51.468;5.804;2022-09-01T01:12:41;1.30;;;1.00;;
20334;SDS011;10325;51.468;5.804;2022-09-01T01:15:16;1.50;;;1.20;;
20334;SDS011;10325;51.468;5.804;2022-09-01T01:17:59;2.57;;;1.50;;
20334;SDS011;10325;51.468;5.804;2022-09-01T01:20:28;2.00;;;1.10;;
20334;SDS011;10325;51.468;5.804;2022-09-01T01:26:09;2.37;;;1.30;;
20334;SDS011;10325;51.468;5.804;2022-09-01T01:28:42;3.50;;;1.20;;
20334;SDS011;10325;51.468;5.804;2022-09-01T01:31:15;4.33;;;0.90;;
20334;SDS011;10325;51.468;5.804;2022-09-01T01:33:50;2.53;;;1.20;;
20334;SDS011;10325;51.468;5.804;2022-09-01T01:36:24;1.47;;;1.03;;
20334;SDS011;10325;51.468;5.804;2022-09-01T01:39:01;1.50;;;1.00;;
20334;SDS011;10325;51.468;5.804;2022-09-01T01:41:35;1.57;;;1.03;;
20334;SDS011;10325;51.468;5.804;2022-09-01T01:44:16;1.73;;;1.00;;
20334;SDS011;10325;51.468;5.804;2022-09-01T01:46:50;1.97;;;1.10;;
20334;SDS011;10325;51.468;5.804;2022-09-01T01:49:22;2.17;;;1.00;;
20334;SDS011;10325;51.468;5.804;2022-09-01T01:51:53;2.33;;;1.10;;
20334;SDS011;10325;51.468;5.804;2022-09-01T01:54:27;2.60;;;1.07;;
20334;SDS011;10325;51.468;5.804;2022-09-01T01:56:59;1.77;;;1.10;;
20334;SDS011;10325;51.468;5.804;2022-09-01T01:59:37;1.87;;;1.10;;
20334;SDS011;10325;51.468;5.804;2022-09-01T02:02:09;1.13;;;1.03;;
20334;SDS011;10325;51.468;5.804;2022-09-01T02:04:40;1.20;;;1.10;;
20334;SDS011;10325;51.468;5.804;2022-09-01T02:07:11;3.43;;;1.33;;
20334;SDS011;10325;51.468;5.804;2022-09-01T02:09:40;3.03;;;0.80;;
20334;SDS011;10325;51.468;5.804;2022-09-01T02:12:15;2.23;;;1.10;;
20334;SDS011;10325;51.468;5.804;2022-09-01T02:14:54;1.40;;;1.30;;
20334;SDS011;10325;51.468;5.804;2022-09-01T02:17:28;1.27;;;1.00;;
20334;SDS011;10325;51.468;5.804;2022-09-01T02:20:05;1.80;;;1.27;;
20334;SDS011;10325;51.468;5.804;2022-09-01T02:22:46;3.53;;;1.10;;
20334;SDS011;10325;51.468;5.804;2022-09-01T02:25:21;1.20;;;0.93;;
20334;SDS011;10325;51.468;5.804;2022-09-01T02:28:10;1.57;;;0.83;;
20334;SDS011;10325;51.468;5.804;2022-09-01T02:30:47;1.83;;;1.13;;
20334;SDS011;10325;51.468;5.804;2022-09-01T02:33:21;1.77;;;1.20;;
20334;SDS011;10325;51.468;5.804;2022-09-01T02:35:50;1.00;;;0.90;;
20334;SDS011;10325;51.468;5.804;2022-09-01T02:38:22;1.40;;;1.00;;
20334;SDS011;10325;51.468;5.804;2022-09-01T02:41:06;0.93;;;0.83;;
20334;SDS011;10325;51.468;5.804;2022-09-01T02:43:38;1.10;;;0.73;;
20334;SDS011;10325;51.468;5.804;2022-09-01T02:46:23;1.10;;;0.97;;
20334;SDS011;10325;51.468;5.804;2022-09-01T02:48:52;1.40;;;1.10;;
20334;SDS011;10325;51.468;5.804;2022-09-01T02:51:35;1.30;;;1.17;;
20334;SDS011;10325;51.468;5.804;2022-09-01T02:54:10;1.10;;;1.00;;
20334;SDS011;10325;51.468;5.804;2022-09-01T02:56:49;1.43;;;1.00;;
20334;SDS011;10325;51.468;5.804;2022-09-01T02:59:27;1.67;;;0.97;;
20334;SDS011;10325;51.468;5.804;2022-09-01T03:02:11;1.30;;;1.00;;
20334;SDS011;10325;51.468;5.804;2022-09-01T03:04:42;1.20;;;1.10;;
20334;SDS011;10325;51.468;5.804;2022-09-01T03:07:15;3.13;;;0.90;;
20334;SDS011;10325;51.468;5.804;2022-09-01T03:09:59;1.63;;;1.00;;
20334;SDS011;10325;51.468;5.804;2022-09-01T03:12:38;1.10;;;1.00;;
20334;SDS011;10325;51.468;5.804;2022-09-01T03:15:08;1.77;;;1.00;;
20334;SDS011;10325;51.468;5.804;2022-09-01T03:17:40;2.10;;;1.00;;
20334;SDS011;10325;51.468;5.804;2022-09-01T03:20:08;1.13;;;1.03;;
20334;SDS011;10325;51.468;5.804;2022-09-01T03:22:39;1.73;;;0.90;;
20334;SDS011;10325;51.468;5.804;2022-09-01T03:25:08;2.20;;;1.03;;
20334;SDS011;10325;51.468;5.804;2022-09-01T03:27:37;1.40;;;1.10;;
20334;SDS011;10325;51.468;5.804;2022-09-01T03:30:07;1.33;;;0.90;;
20334;SDS011;10325;51.468;5.804;2022-09-01T03:32:46;3.53;;;1.10;;
20334;SDS011;10325;51.468;5.804;2022-09-01T03:35:21;1.90;;;1.00;;
20334;SDS011;10325;51.468;5.804;2022-09-01T03:37:49;2.33;;;1.10;;
20334;SDS011;10325;51.468;5.804;2022-09-01T03:40:22;2.70;;;0.90;;
20334;SDS011;10325;51.468;5.804;2022-09-01T03:42:53;1.77;;;0.90;;
20334;SDS011;10325;51.468;5.804;2022-09-01T03:45:21;2.67;;;1.13;;
20334;SDS011;10325;51.468;5.804;2022-09-01T03:47:53;2.13;;;1.13;;
20334;SDS011;10325;51.468;5.804;2022-09-01T03:50:23;2.43;;;1.30;;
20334;SDS011;10325;51.468;5.804;2022-09-01T03:52:56;2.17;;;0.90;;
20334;SDS011;10325;51.468;5.804;2022-09-01T03:55:31;1.40;;;1.13;;
20334;SDS011;10325;51.468;5.804;2022-09-01T03:58:05;1.37;;;0.90;;
20334;SDS011;10325;51.468;5.804;2022-09-01T04:00:38;1.10;;;1.00;;
20334;SDS011;10325;51.468;5.804;2022-09-01T04:03:16;1.47;;;1.07;;
20334;SDS011;10325;51.468;5.804;2022-09-01T04:06:04;2.20;;;1.00;;
20334;SDS011;10325;51.468;5.804;2022-09-01T04:08:37;1.23;;;0.80;;
20334;SDS011;10325;51.468;5.804;2022-09-01T04:11:16;2.80;;;1.40;;
20334;SDS011;10325;51.468;5.804;2022-09-01T04:13:51;1.50;;;1.00;;
20334;SDS011;10325;51.468;5.804;2022-09-01T04:16:22;3.27;;;1.27;;
20334;SDS011;10325;51.468;5.804;2022-09-01T04:19:15;1.87;;;1.23;;
20334;SDS011;10325;51.468;5.804;2022-09-01T04:21:59;1.73;;;1.17;;
20334;SDS011;10325;51.468;5.804;2022-09-01T04:24:32;3.07;;;1.00;;
20334;SDS011;10325;51.468;5.804;2022-09-01T04:27:11;2.63;;;1.20;;
20334;SDS011;10325;51.468;5.804;2022-09-01T04:29:44;1.60;;;1.30;;
20334;SDS011;10325;51.468;5.804;2022-09-01T04:32:16;1.30;;;1.00;;
20334;SDS011;10325;51.468;5.804;2022-09-01T04:34:57;2.30;;;1.03;;
20334;SDS011;10325;51.468;5.804;2022-09-01T04:37:30;1.57;;;1.00;;
20334;SDS011;10325;51.468;5.804;2022-09-01T04:40:16;2.40;;;1.27;;
20334;SDS011;10325;51.468;5.804;2022-09-01T04:42:54;1.67;;;1.10;;
20334;SDS011;10325;51.468;5.804;2022-09-01T04:45:27;2.47;;;1.20;;
20334;SDS011;10325;51.468;5.804;2022-09-01T04:48:04;2.30;;;0.87;;
20334;SDS011;10325;51.468;5.804;2022-09-01T04:50:35;1.27;;;1.07;;
20334;SDS011;10325;51.468;5.804;2022-09-01T04:53:09;1.97;;;1.10;;
20334;SDS011;10325;51.468;5.804;2022-09-01T04:55:41;2.07;;;1.00;;
20334;SDS011;10325;51.468;5.804;2022-09-01T04:58:16;1.20;;;1.10;;
20334;SDS011;10325;51.468;5.804;2022-09-01T05:00:49;2.90;;;1.27;;
20334;SDS011;10325;51.468;5.804;2022-09-01T05:03:28;4.23;;;1.30;;
20334;SDS011;10325;51.468;5.804;2022-09-01T05:06:04;1.93;;;0.90;;
20334;SDS011;10325;51.468;5.804;2022-09-01T05:08:52;0.90;;;0.87;;
20334;SDS011;10325;51.468;5.804;2022-09-01T05:11:31;1.60;;;1.00;;
20334;SDS011;10325;51.468;5.804;2022-09-01T05:14:07;2.60;;;1.37;;
20334;SDS011;10325;51.468;5.804;2022-09-01T05:16:37;2.30;;;1.33;;
20334;SDS011;10325;51.468;5.804;2022-09-01T05:19:20;2.00;;;1.27;;
20334;SDS011;10325;51.468;5.804;2022-09-01T05:21:54;3.60;;;1.23;;
20334;SDS011;10325;51.468;5.804;2022-09-01T05:24:24;2.00;;;1.20;;
20334;SDS011;10325;51.468;5.804;2022-09-01T05:27:08;1.33;;;1.10;;
20334;SDS011;10325;51.468;5.804;2022-09-01T05:29:43;1.33;;;1.10;;
20334;SDS011;10325;51.468;5.804;2022-09-01T05:32:28;2.20;;;1.20;;
20334;SDS011;10325;51.468;5.804;2022-09-01T05:34:56;2.07;;;1.30;;
20334;SDS011;10325;51.468;5.804;2022-09-01T05:37:33;2.20;;;1.30;;
20334;SDS011;10325;51.468;5.804;2022-09-01T05:40:17;2.90;;;1.00;;
20334;SDS011;10325;51.468;5.804;2022-09-01T05:42:52;2.90;;;1.23;;
20334;SDS011;10325;51.468;5.804;2022-09-01T05:45:29;2.57;;;1.27;;
20334;SDS011;10325;51.468;5.804;2022-09-01T05:48:23;2.50;;;1.37;;
20334;SDS011;10325;51.468;5.804;2022-09-01T05:50:52;3.13;;;1.30;;
20334;SDS011;10325;51.468;5.804;2022-09-01T05:53:27;2.23;;;0.90;;
20334;SDS011;10325;51.468;5.804;2022-09-01T05:56:00;3.72;;;1.40;;
20334;SDS011;10325;51.468;5.804;2022-09-01T05:58:35;3.53;;;1.13;;
20334;SDS011;10325;51.468;5.804;2022-09-01T06:01:26;4.10;;;1.43;;
20334;SDS011;10325;51.468;5.804;2022-09-01T06:04:12;5.00;;;1.93;;
20334;SDS011;10325;51.468;5.804;2022-09-01T06:06:42;6.93;;;1.73;;
20334;SDS011;10325;51.468;5.804;2022-09-01T06:09:37;4.73;;;1.40;;
20334;SDS011;10325;51.468;5.804;2022-09-01T06:12:10;8.13;;;1.70;;
20334;SDS011;10325;51.468;5.804;2022-09-01T06:14:58;2.57;;;1.30;;
20334;SDS011;10325;51.468;5.804;2022-09-01T06:17:28;3.27;;;1.50;;
20334;SDS011;10325;51.468;5.804;2022-09-01T06:20:07;4.73;;;1.80;;
20334;SDS011;10325;51.468;5.804;2022-09-01T06:22:39;7.37;;;1.90;;
20334;SDS011;10325;51.468;5.804;2022-09-01T06:25:20;3.87;;;1.50;;
20334;SDS011;10325;51.468;5.804;2022-09-01T06:28:01;5.75;;;1.73;;
20334;SDS011;10325;51.468;5.804;2022-09-01T06:30:34;2.83;;;1.60;;
20334;SDS011;10325;51.468;5.804;2022-09-01T06:33:05;2.50;;;1.40;;
20334;SDS011;10325;51.468;5.804;2022-09-01T06:35:36;2.43;;;1.40;;
20334;SDS011;10325;51.468;5.804;2022-09-01T06:38:07;2.43;;;1.50;;
20334;SDS011;10325;51.468;5.804;2022-09-01T06:40:40;2.50;;;1.43;;
20334;SDS011;10325;51.468;5.804;2022-09-01T06:43:11;3.17;;;1.10;;
20334;SDS011;10325;51.468;5.804;2022-09-01T06:45:43;3.97;;;1.40;;
20334;SDS011;10325;51.468;5.804;2022-09-01T06:48:16;1.60;;;1.27;;
20334;SDS011;10325;51.468;5.804;2022-09-01T06:50:48;4.20;;;1.40;;
20334;SDS011;10325;51.468;5.804;2022-09-01T06:53:45;6.50;;;1.77;;
20334;SDS011;10325;51.468;5.804;2022-09-01T06:56:38;2.37;;;1.70;;
20334;SDS011;10325;51.468;5.804;2022-09-01T06:59:30;6.03;;;1.70;;
20334;SDS011;10325;51.468;5.804;2022-09-01T07:02:19;5.73;;;1.93;;
20334;SDS011;10325;51.468;5.804;2022-09-01T07:04:57;4.37;;;1.60;;
20334;SDS011;10325;51.468;5.804;2022-09-01T07:07:24;8.17;;;1.77;;
20334;SDS011;10325;51.468;5.804;2022-09-01T07:10:21;2.97;;;1.60;;
20334;SDS011;10325;51.468;5.804;2022-09-01T07:12:52;3.60;;;1.60;;
20334;SDS011;10325;51.468;5.804;2022-09-01T07:15:37;4.87;;;1.60;;
20334;SDS011;10325;51.468;5.804;2022-09-01T07:18:32;5.03;;;1.70;;
20334;SDS011;10325;51.468;5.804;2022-09-01T07:21:10;5.17;;;1.90;;
20334;SDS011;10325;51.468;5.804;2022-09-01T07:24:01;3.97;;;1.37;;
20334;SDS011;10325;51.468;5.804;2022-09-01T07:26:39;4.37;;;1.63;;
20334;SDS011;10325;51.468;5.804;2022-09-01T07:29:14;4.83;;;1.90;;
20334;SDS011;10325;51.468;5.804;2022-09-01T07:31:45;4.03;;;1.30;;
20334;SDS011;10325;51.468;5.804;2022-09-01T07:34:36;5.33;;;1.63;;
20334;SDS011;10325;51.468;5.804;2022-09-01T07:37:12;3.77;;;1.50;;
20334;SDS011;10325;51.468;5.804;2022-09-01T07:40:07;3.00;;;1.43;;
20334;SDS011;10325;51.468;5.804;2022-09-01T07:43:00;5.37;;;1.80;;
20334;SDS011;10325;51.468;5.804;2022-09-01T07:45:43;5.13;;;2.03;;
20334;SDS011;10325;51.468;5.804;2022-09-01T07:48:24;3.63;;;1.60;;
20334;SDS011;10325;51.468;5.804;2022-09-01T07:51:16;4.50;;;1.80;;
20334;SDS011;10325;51.468;5.804;2022-09-01T07:54:03;2.20;;;1.57;;
20334;SDS011;10325;51.468;5.804;2022-09-01T07:56:36;6.10;;;1.83;;
20334;SDS011;10325;51.468;5.804;2022-09-01T07:59:10;5.13;;;1.43;;
20334;SDS011;10325;51.468;5.804;2022-09-01T08:01:43;3.30;;;1.80;;
20334;SDS011;10325;51.468;5.804;2022-09-01T08:04:14;4.77;;;1.90;;
20334;SDS011;10325;51.468;5.804;2022-09-01T08:06:58;6.57;;;1.70;;
20334;SDS011;10325;51.468;5.804;2022-09-01T08:09:27;3.80;;;1.63;;
20334;SDS011;10325;51.468;5.804;2022-09-01T08:12:05;7.43;;;1.93;;
20334;SDS011;10325;51.468;5.804;2022-09-01T08:14:34;5.40;;;1.80;;
20334;SDS011;10325;51.468;5.804;2022-09-01T08:17:08;4.87;;;1.70;;
20334;SDS011;10325;51.468;5.804;2022-09-01T08:19:58;8.57;;;2.03;;
20334;SDS011;10325;51.468;5.804;2022-09-01T08:22:30;6.63;;;1.67;;
20334;SDS011;10325;51.468;5.804;2022-09-01T08:25:02;8.33;;;1.80;;
20334;SDS011;10325;51.468;5.804;2022-09-01T08:27:33;4.23;;;1.70;;
20334;SDS011;10325;51.468;5.804;2022-09-01T08:30:11;5.73;;;1.80;;
20334;SDS011;10325;51.468;5.804;2022-09-01T08:32:43;6.93;;;1.60;;
20334;SDS011;10325;51.468;5.804;2022-09-01T08:35:15;5.77;;;1.60;;
20334;SDS011;10325;51.468;5.804;2022-09-01T08:37:43;7.83;;;1.73;;
20334;SDS011;10325;51.468;5.804;2022-09-01T08:40:15;3.73;;;1.67;;
20334;SDS011;10325;51.468;5.804;2022-09-01T08:43:08;3.97;;;2.10;;
20334;SDS011;10325;51.468;5.804;2022-09-01T08:45:49;8.37;;;1.60;;
20334;SDS011;10325;51.468;5.804;2022-09-01T08:48:24;5.03;;;1.53;;
20334;SDS011;10325;51.468;5.804;2022-09-01T08:51:38;2.83;;;1.63;;
20334;SDS011;10325;51.468;5.804;2022-09-01T08:57:04;4.03;;;1.67;;
20334;SDS011;10325;51.468;5.804;2022-09-01T08:59:33;3.07;;;1.47;;
20334;SDS011;10325;51.468;5.804;2022-09-01T09:05:07;5.27;;;1.73;;
20334;SDS011;10325;51.468;5.804;2022-09-01T09:10:42;3.17;;;1.30;;
20334;SDS011;10325;51.468;5.804;2022-09-01T09:15:58;5.43;;;1.53;;
20334;SDS011;10325;51.468;5.804;2022-09-01T09:19:06;3.13;;;1.40;;
20334;SDS011;10325;51.468;5.804;2022-09-01T09:21:40;3.03;;;1.47;;
20334;SDS011;10325;51.468;5.804;2022-09-01T09:24:26;2.97;;;1.30;;
20334;SDS011;10325;51.468;5.804;2022-09-01T09:27:32;1.50;;;1.13;;
20334;SDS011;10325;51.468;5.804;2022-09-01T09:30:08;2.50;;;1.40;;
20334;SDS011;10325;51.468;5.804;2022-09-01T09:32:53;2.67;;;1.40;;
20334;SDS011;10325;51.468;5.804;2022-09-01T09:35:48;2.33;;;1.40;;
20334;SDS011;10325;51.468;5.804;2022-09-01T09:38:19;1.43;;;1.20;;
20334;SDS011;10325;51.468;5.804;2022-09-01T09:41:25;3.47;;;1.50;;
20334;SDS011;10325;51.468;5.804;2022-09-01T09:46:37;6.10;;;1.70;;
20334;SDS011;10325;51.468;5.804;2022-09-01T09:49:24;2.60;;;1.17;;
20334;SDS011;10325;51.468;5.804;2022-09-01T09:52:13;1.87;;;1.10;;
20334;SDS011;10325;51.468;5.804;2022-09-01T09:55:00;2.73;;;1.10;;
20334;SDS011;10325;51.468;5.804;2022-09-01T09:57:38;2.10;;;1.00;;
20334;SDS011;10325;51.468;5.804;2022-09-01T10:00:22;3.53;;;1.00;;
20334;SDS011;10325;51.468;5.804;2022-09-01T10:03:02;1.97;;;1.10;;
20334;SDS011;10325;51.468;5.804;2022-09-01T10:05:44;2.10;;;1.47;;
20334;SDS011;10325;51.468;5.804;2022-09-01T10:11:09;4.50;;;1.73;;
20334;SDS011;10325;51.468;5.804;2022-09-01T10:13:38;5.57;;;1.10;;
20334;SDS011;10325;51.468;5.804;2022-09-01T10:16:17;3.00;;;1.03;;
20334;SDS011;10325;51.468;5.804;2022-09-01T10:18:47;3.43;;;1.07;;
20334;SDS011;10325;51.468;5.804;2022-09-01T10:21:27;2.40;;;1.00;;
20334;SDS011;10325;51.468;5.804;2022-09-01T10:24:12;2.80;;;1.00;;
20334;SDS011;10325;51.468;5.804;2022-09-01T10:26:52;2.33;;;1.20;;
20334;SDS011;10325;51.468;5.804;2022-09-01T10:29:33;2.33;;;1.00;;
20334;SDS011;10325;51.468;5.804;2022-09-01T10:32:17;1.10;;;0.93;;
20334;SDS011;10325;51.468;5.804;2022-09-01T10:35:11;1.93;;;1.10;;
20334;SDS011;10325;51.468;5.804;2022-09-01T10:37:52;1.23;;;0.90;;
20334;SDS011;10325;51.468;5.804;2022-09-01T10:48:44;1.37;;;1.07;;
20334;SDS011;10325;51.468;5.804;2022-09-01T10:54:01;0.93;;;0.77;;
20334;SDS011;10325;51.468;5.804;2022-09-01T10:56:43;4.30;;;1.10;;
20334;SDS011;10325;51.468;5.804;2022-09-01T10:59:38;1.47;;;0.80;;
20334;SDS011;10325;51.468;5.804;2022-09-01T11:02:24;1.67;;;1.20;;
20334;SDS011;10325;51.468;5.804;2022-09-01T11:07:34;1.83;;;1.10;;
20334;SDS011;10325;51.468;5.804;2022-09-01T11:10:30;1.40;;;0.90;;
20334;SDS011;10325;51.468;5.804;2022-09-01T11:13:21;3.77;;;0.90;;
20334;SDS011;10325;51.468;5.804;2022-09-01T11:15:55;2.27;;;1.10;;
20334;SDS011;10325;51.468;5.804;2022-09-01T11:22:04;1.97;;;1.00;;
20334;SDS011;10325;51.468;5.804;2022-09-01T11:24:49;0.80;;;0.70;;
20334;SDS011;10325;51.468;5.804;2022-09-01T11:35:37;1.70;;;0.87;;
20334;SDS011;10325;51.468;5.804;2022-09-01T11:38:07;1.53;;;1.03;;
20334;SDS011;10325;51.468;5.804;2022-09-01T11:40:36;2.10;;;1.20;;
20334;SDS011;10325;51.468;5.804;2022-09-01T11:43:13;2.53;;;0.90;;
20334;SDS011;10325;51.468;5.804;2022-09-01T11:48:22;1.03;;;0.93;;
20334;SDS011;10325;51.468;5.804;2022-09-01T11:50:59;1.27;;;0.87;;
20334;SDS011;10325;51.468;5.804;2022-09-01T11:53:31;1.17;;;0.80;;
20334;SDS011;10325;51.468;5.804;2022-09-01T11:58:46;2.73;;;1.10;;
20334;SDS011;10325;51.468;5.804;2022-09-01T12:01:22;3.20;;;1.00;;
20334;SDS011;10325;51.468;5.804;2022-09-01T12:03:54;3.03;;;1.20;;
20334;SDS011;10325;51.468;5.804;2022-09-01T12:06:29;1.70;;;1.20;;
20334;SDS011;10325;51.468;5.804;2022-09-01T12:09:03;2.40;;;1.13;;
20334;SDS011;10325;51.468;5.804;2022-09-01T12:11:39;2.63;;;0.90;;
20334;SDS011;10325;51.468;5.804;2022-09-01T12:14:19;2.20;;;1.10;;
20334;SDS011;10325;51.468;5.804;2022-09-01T12:16:55;3.30;;;1.07;;
20334;SDS011;10325;51.468;5.804;2022-09-01T12:19:29;4.57;;;1.00;;
20334;SDS011;10325;51.468;5.804;2022-09-01T12:22:12;1.37;;;0.90;;
20334;SDS011;10325;51.468;5.804;2022-09-01T12:24:55;2.73;;;1.10;;
20334;SDS011;10325;51.468;5.804;2022-09-01T12:27:26;0.87;;;0.70;;
20334;SDS011;10325;51.468;5.804;2022-09-01T12:29:53;0.90;;;0.90;;
20334;SDS011;10325;51.468;5.804;2022-09-01T12:32:26;1.20;;;0.90;;
20334;SDS011;10325;51.468;5.804;2022-09-01T12:35:00;3.33;;;1.00;;
20334;SDS011;10325;51.468;5.804;2022-09-01T12:37:38;1.63;;;1.00;;
20334;SDS011;10325;51.468;5.804;2022-09-01T12:40:53;3.17;;;0.90;;
20334;SDS011;10325;51.468;5.804;2022-09-01T12:43:04;4.13;;;0.90;;
20334;SDS011;10325;51.468;5.804;2022-09-01T12:45:45;0.80;;;0.80;;
20334;SDS011;10325;51.468;5.804;2022-09-01T12:48:24;3.03;;;1.03;;
20334;SDS011;10325;51.468;5.804;2022-09-01T12:51:41;3.47;;;0.90;;
20334;SDS011;10325;51.468;5.804;2022-09-01T12:53:59;2.13;;;1.20;;
20334;SDS011;10325;51.468;5.804;2022-09-01T12:56:36;2.10;;;0.80;;
20334;SDS011;10325;51.468;5.804;2022-09-01T12:59:22;1.17;;;1.07;;
20334;SDS011;10325;51.468;5.804;2022-09-01T13:05:06;1.70;;;1.00;;
20334;SDS011;10325;51.468;5.804;2022-09-01T13:07:43;5.67;;;1.43;;
20334;SDS011;10325;51.468;5.804;2022-09-01T13:10:11;3.47;;;1.37;;
20334;SDS011;10325;51.468;5.804;2022-09-01T13:12:44;2.17;;;1.03;;
20334;SDS011;10325;51.468;5.804;2022-09-01T13:15:11;4.97;;;1.43;;
20334;SDS011;10325;51.468;5.804;2022-09-01T13:17:40;21.87;;;5.30;;
20334;SDS011;10325;51.468;5.804;2022-09-01T13:20:13;43.10;;;9.17;;
20334;SDS011;10325;51.468;5.804;2022-09-01T13:22:44;26.53;;;6.93;;
20334;SDS011;10325;51.468;5.804;2022-09-01T13:25:17;25.70;;;5.90;;
20334;SDS011;10325;51.468;5.804;2022-09-01T13:27:50;13.57;;;3.87;;
20334;SDS011;10325;51.468;5.804;2022-09-01T13:30:22;9.67;;;3.10;;
20334;SDS011;10325;51.468;5.804;2022-09-01T13:32:57;7.60;;;2.43;;
20334;SDS011;10325;51.468;5.804;2022-09-01T13:35:45;6.07;;;2.73;;
20334;SDS011;10325;51.468;5.804;2022-09-01T13:38:15;4.00;;;1.87;;
20334;SDS011;10325;51.468;5.804;2022-09-01T13:40:45;5.10;;;1.70;;
20334;SDS011;10325;51.468;5.804;2022-09-01T13:43:15;5.73;;;1.70;;
20334;SDS011;10325;51.468;5.804;2022-09-01T13:46:02;3.90;;;1.77;;
20334;SDS011;10325;51.468;5.804;2022-09-01T13:48:43;2.87;;;1.70;;
20334;SDS011;10325;51.468;5.804;2022-09-01T13:51:39;6.83;;;1.93;;
20334;SDS011;10325;51.468;5.804;2022-09-01T13:54:08;3.57;;;1.20;;
20334;SDS011;10325;51.468;5.804;2022-09-01T13:56:39;2.20;;;1.10;;
20334;SDS011;10325;51.468;5.804;2022-09-01T13:59:08;8.13;;;1.47;;
20334;SDS011;10325;51.468;5.804;2022-09-01T14:01:44;1.30;;;1.20;;
20334;SDS011;10325;51.468;5.804;2022-09-01T14:04:12;1.70;;;1.30;;
20334;SDS011;10325;51.468;5.804;2022-09-01T14:06:43;4.20;;;1.33;;
20334;SDS011;10325;51.468;5.804;2022-09-01T14:09:15;3.47;;;1.30;;
20334;SDS011;10325;51.468;5.804;2022-09-01T14:11:46;2.67;;;1.10;;
20334;SDS011;10325;51.468;5.804;2022-09-01T14:14:17;4.13;;;1.48;;
20334;SDS011;10325;51.468;5.804;2022-09-01T14:16:48;9.73;;;1.40;;
20334;SDS011;10325;51.468;5.804;2022-09-01T14:19:19;1.63;;;0.93;;
20334;SDS011;10325;51.468;5.804;2022-09-01T14:21:51;3.90;;;1.13;;
20334;SDS011;10325;51.468;5.804;2022-09-01T14:24:24;1.90;;;1.00;;
20334;SDS011;10325;51.468;5.804;2022-09-01T14:26:55;10.90;;;1.50;;
20334;SDS011;10325;51.468;5.804;2022-09-01T14:29:27;1.80;;;1.03;;
20334;SDS011;10325;51.468;5.804;2022-09-01T14:31:59;3.50;;;1.27;;
20334;SDS011;10325;51.468;5.804;2022-09-01T14:34:29;4.60;;;1.30;;
20334;SDS011;10325;51.468;5.804;2022-09-01T14:36:59;4.53;;;1.20;;
20334;SDS011;10325;51.468;5.804;2022-09-01T14:39:28;3.60;;;1.20;;
20334;SDS011;10325;51.468;5.804;2022-09-01T14:41:59;1.57;;;0.90;;
20334;SDS011;10325;51.468;5.804;2022-09-01T14:44:36;2.47;;;1.20;;
20334;SDS011;10325;51.468;5.804;2022-09-01T14:47:07;1.40;;;1.23;;
20334;SDS011;10325;51.468;5.804;2022-09-01T14:49:46;1.23;;;1.00;;
20334;SDS011;10325;51.468;5.804;2022-09-01T14:52:19;3.00;;;1.30;;
20334;SDS011;10325;51.468;5.804;2022-09-01T14:54:48;3.27;;;1.53;;
20334;SDS011;10325;51.468;5.804;2022-09-01T14:57:18;3.83;;;1.40;;
20334;SDS011;10325;51.468;5.804;2022-09-01T15:00:04;4.10;;;1.37;;
20334;SDS011;10325;51.468;5.804;2022-09-01T15:02:40;3.33;;;1.43;;
20334;SDS011;10325;51.468;5.804;2022-09-01T15:05:14;3.47;;;1.30;;
20334;SDS011;10325;51.468;5.804;2022-09-01T15:07:50;2.07;;;1.40;;
20334;SDS011;10325;51.468;5.804;2022-09-01T15:10:25;1.63;;;1.10;;
20334;SDS011;10325;51.468;5.804;2022-09-01T15:12:57;3.43;;;1.20;;
20334;SDS011;10325;51.468;5.804;2022-09-01T15:15:28;1.40;;;1.20;;
20334;SDS011;10325;51.468;5.804;2022-09-01T15:17:59;1.50;;;1.17;;
20334;SDS011;10325;51.468;5.804;2022-09-01T15:20:31;2.43;;;1.30;;
20334;SDS011;10325;51.468;5.804;2022-09-01T15:23:20;3.07;;;1.20;;
20334;SDS011;10325;51.468;5.804;2022-09-01T15:25:59;1.20;;;1.10;;
20334;SDS011;10325;51.468;5.804;2022-09-01T15:28:31;2.43;;;1.47;;
20334;SDS011;10325;51.468;5.804;2022-09-01T15:31:01;1.53;;;1.30;;
20334;SDS011;10325;51.468;5.804;2022-09-01T15:33:38;3.17;;;1.40;;
20334;SDS011;10325;51.468;5.804;2022-09-01T15:36:12;1.60;;;1.40;;
20334;SDS011;10325;51.468;5.804;2022-09-01T15:38:44;2.17;;;1.20;;
20334;SDS011;10325;51.468;5.804;2022-09-01T15:41:17;3.77;;;1.40;;
20334;SDS011;10325;51.468;5.804;2022-09-01T15:43:49;2.30;;;1.33;;
20334;SDS011;10325;51.468;5.804;2022-09-01T15:46:26;1.30;;;1.20;;
20334;SDS011;10325;51.468;5.804;2022-09-01T15:49:16;3.53;;;1.30;;
20334;SDS011;10325;51.468;5.804;2022-09-01T15:51:48;1.53;;;1.20;;
20334;SDS011;10325;51.468;5.804;2022-09-01T15:54:21;4.37;;;1.43;;
20334;SDS011;10325;51.468;5.804;2022-09-01T15:56:56;1.70;;;1.20;;
20334;SDS011;10325;51.468;5.804;2022-09-01T15:59:29;2.00;;;1.30;;
20334;SDS011;10325;51.468;5.804;2022-09-01T16:02:00;2.33;;;1.33;;
20334;SDS011;10325;51.468;5.804;2022-09-01T16:04:36;1.87;;;1.30;;
20334;SDS011;10325;51.468;5.804;2022-09-01T16:07:12;1.40;;;1.17;;
20334;SDS011;10325;51.468;5.804;2022-09-01T16:09:52;1.80;;;1.23;;
20334;SDS011;10325;51.468;5.804;2022-09-01T16:12:29;2.70;;;1.50;;
20334;SDS011;10325;51.468;5.804;2022-09-01T16:14:58;1.70;;;1.33;;
20334;SDS011;10325;51.468;5.804;2022-09-01T16:18:09;2.73;;;1.70;;
20334;SDS011;10325;51.468;5.804;2022-09-01T16:23:20;4.60;;;1.40;;
20334;SDS011;10325;51.468;5.804;2022-09-01T16:26:06;2.43;;;1.63;;
20334;SDS011;10325;51.468;5.804;2022-09-01T16:28:41;1.93;;;1.40;;
20334;SDS011;10325;51.468;5.804;2022-09-01T16:31:18;2.33;;;1.57;;
20334;SDS011;10325;51.468;5.804;2022-09-01T16:33:51;1.40;;;1.30;;
20334;SDS011;10325;51.468;5.804;2022-09-01T16:41:53;1.80;;;1.30;;
20334;SDS011;10325;51.468;5.804;2022-09-01T16:52:27;1.53;;;1.33;;
20334;SDS011;10325;51.468;5.804;2022-09-01T16:57:45;1.70;;;1.30;;
20334;SDS011;10325;51.468;5.804;2022-09-01T17:00:34;2.87;;;1.70;;